sensor_id;sensor_type;location;lat;lon;timestamp;temperature;humidity
12125;DHT22;6126;57.908;16.490;2023-04-25T00:01:39;7.30;92.70
12125;DHT22;6126;57.908;16.490;2023-04-25T00:04:05;7.10;92.60
12125;DHT22;6126;57.908;16.490;2023-04-25T00:06:34;7.40;92.80
12125;DHT22;6126;57.908;16.490;2023-04-25T00:09:05;7.40;93.10
12125;DHT22;6126;57.908;16.490;2023-04-25T00:11:35;7.40;92.80
12125;DHT22;6126;57.908;16.490;2023-04-25T00:14:02;7.40;92.80
12125;DHT22;6126;57.908;16.490;2023-04-25T00:16:30;7.40;92.90
12125;DHT22;6126;57.908;16.490;2023-04-25T00:19:00;7.30;92.80
12125;DHT22;6126;57.908;16.490;2023-04-25T00:21:27;7.30;92.90
12125;DHT22;6126;57.908;16.490;2023-04-25T00:23:54;7.10;92.90
12125;DHT22;6126;57.908;16.490;2023-04-25T00:26:20;7.20;92.90
12125;DHT22;6126;57.908;16.490;2023-04-25T00:28:47;6.90;92.80
12125;DHT22;6126;57.908;16.490;2023-04-25T00:31:13;7.20;93.00
12125;DHT22;6126;57.908;16.490;2023-04-25T00:33:40;7.10;92.90
12125;DHT22;6126;57.908;16.490;2023-04-25T00:36:06;7.10;92.90
12125;DHT22;6126;57.908;16.490;2023-04-25T00:38:33;7.30;92.90
12125;DHT22;6126;57.908;16.490;2023-04-25T00:40:58;6.80;92.80
12125;DHT22;6126;57.908;16.490;2023-04-25T00:43:26;7.00;93.10
12125;DHT22;6126;57.908;16.490;2023-04-25T00:45:53;7.00;93.00
12125;DHT22;6126;57.908;16.490;2023-04-25T00:48:22;7.10;93.10
12125;DHT22;6126;57.908;16.490;2023-04-25T00:50:57;7.10;92.90
12125;DHT22;6126;57.908;16.490;2023-04-25T00:53:26;6.80;92.90
12125;DHT22;6126;57.908;16.490;2023-04-25T00:55:53;6.90;93.00
12125;DHT22;6126;57.908;16.490;2023-04-25T00:58:22;7.00;93.00
12125;DHT22;6126;57.908;16.490;2023-04-25T01:00:50;7.00;93.10
12125;DHT22;6126;57.908;16.490;2023-04-25T01:03:17;6.90;93.10
12125;DHT22;6126;57.908;16.490;2023-04-25T01:05:45;7.00;93.20
12125;DHT22;6126;57.908;16.490;2023-04-25T01:08:13;7.20;93.50
12125;DHT22;6126;57.908;16.490;2023-04-25T01:10:39;6.90;93.00
12125;DHT22;6126;57.908;16.490;2023-04-25T01:13:06;7.10;93.20
12125;DHT22;6126;57.908;16.490;2023-04-25T01:15:32;7.10;93.20
12125;DHT22;6126;57.908;16.490;2023-04-25T01:17:58;6.90;93.10
12125;DHT22;6126;57.908;16.490;2023-04-25T01:20:26;6.90;93.10
12125;DHT22;6126;57.908;16.490;2023-04-25T01:22:54;6.80;93.10
12125;DHT22;6126;57.908;16.490;2023-04-25T01:25:22;6.80;93.20
12125;DHT22;6126;57.908;16.490;2023-04-25T01:27:49;7.00;93.30
12125;DHT22;6126;57.908;16.490;2023-04-25T01:30:15;6.80;93.20
12125;DHT22;6126;57.908;16.490;2023-04-25T01:32:42;6.70;93.10
12125;DHT22;6126;57.908;16.490;2023-04-25T01:35:11;6.60;93.10
12125;DHT22;6126;57.908;16.490;2023-04-25T01:37:41;6.70;93.20
12125;DHT22;6126;57.908;16.490;2023-04-25T01:40:09;6.70;93.20
12125;DHT22;6126;57.908;16.490;2023-04-25T01:42:41;6.90;93.40
12125;DHT22;6126;57.908;16.490;2023-04-25T01:45:09;6.70;93.00
12125;DHT22;6126;57.908;16.490;2023-04-25T01:47:36;6.80;93.20
12125;DHT22;6126;57.908;16.490;2023-04-25T01:50:07;6.70;93.20
12125;DHT22;6126;57.908;16.490;2023-04-25T01:52:33;6.80;93.30
12125;DHT22;6126;57.908;16.490;2023-04-25T01:55:01;7.10;93.40
12125;DHT22;6126;57.908;16.490;2023-04-25T01:57:27;6.80;93.30
12125;DHT22;6126;57.908;16.490;2023-04-25T01:59:59;7.10;93.40
12125;DHT22;6126;57.908;16.490;2023-04-25T02:02:26;6.90;93.30
12125;DHT22;6126;57.908;16.490;2023-04-25T02:04:52;6.80;93.30
12125;DHT22;6126;57.908;16.490;2023-04-25T02:07:20;6.50;93.10
12125;DHT22;6126;57.908;16.490;2023-04-25T02:09:46;6.50;92.90
12125;DHT22;6126;57.908;16.490;2023-04-25T02:12:12;6.80;93.40
12125;DHT22;6126;57.908;16.490;2023-04-25T02:14:38;6.50;93.30
12125;DHT22;6126;57.908;16.490;2023-04-25T02:17:03;6.80;93.50
12125;DHT22;6126;57.908;16.490;2023-04-25T02:19:31;6.80;93.50
12125;DHT22;6126;57.908;16.490;2023-04-25T02:21:57;6.70;93.10
12125;DHT22;6126;57.908;16.490;2023-04-25T02:24:23;6.80;93.50
12125;DHT22;6126;57.908;16.490;2023-04-25T02:26:49;6.50;93.30
12125;DHT22;6126;57.908;16.490;2023-04-25T02:29:15;6.70;93.40
12125;DHT22;6126;57.908;16.490;2023-04-25T02:31:42;6.80;93.50
12125;DHT22;6126;57.908;16.490;2023-04-25T02:34:08;6.50;93.40
12125;DHT22;6126;57.908;16.490;2023-04-25T02:36:34;6.80;93.50
12125;DHT22;6126;57.908;16.490;2023-04-25T02:39:01;6.70;93.50
12125;DHT22;6126;57.908;16.490;2023-04-25T02:41:28;6.50;93.30
12125;DHT22;6126;57.908;16.490;2023-04-25T02:43:54;6.50;93.30
12125;DHT22;6126;57.908;16.490;2023-04-25T02:46:20;6.80;93.50
12125;DHT22;6126;57.908;16.490;2023-04-25T02:48:46;6.80;93.60
12125;DHT22;6126;57.908;16.490;2023-04-25T02:51:12;6.70;93.50
12125;DHT22;6126;57.908;16.490;2023-04-25T02:53:38;6.60;93.50
12125;DHT22;6126;57.908;16.490;2023-04-25T02:56:04;6.60;93.60
12125;DHT22;6126;57.908;16.490;2023-04-25T02:58:30;6.60;93.50
12125;DHT22;6126;57.908;16.490;2023-04-25T03:00:56;6.60;93.50
12125;DHT22;6126;57.908;16.490;2023-04-25T03:03:22;6.70;93.50
12125;DHT22;6126;57.908;16.490;2023-04-25T03:05:51;6.60;93.50
12125;DHT22;6126;57.908;16.490;2023-04-25T03:08:18;6.90;94.00
12125;DHT22;6126;57.908;16.490;2023-04-25T03:10:44;6.60;93.50
12125;DHT22;6126;57.908;16.490;2023-04-25T03:13:11;6.60;93.60
12125;DHT22;6126;57.908;16.490;2023-04-25T03:15:37;6.50;93.30
12125;DHT22;6126;57.908;16.490;2023-04-25T03:18:04;6.50;93.50
12125;DHT22;6126;57.908;16.490;2023-04-25T03:20:30;6.50;93.60
12125;DHT22;6126;57.908;16.490;2023-04-25T03:22:56;6.50;93.60
12125;DHT22;6126;57.908;16.490;2023-04-25T03:25:22;6.70;93.80
12125;DHT22;6126;57.908;16.490;2023-04-25T03:27:48;6.50;93.40
12125;DHT22;6126;57.908;16.490;2023-04-25T03:30:14;6.50;93.70
12125;DHT22;6126;57.908;16.490;2023-04-25T03:32:40;6.80;93.80
12125;DHT22;6126;57.908;16.490;2023-04-25T03:35:05;6.70;93.80
12125;DHT22;6126;57.908;16.490;2023-04-25T03:37:32;6.50;93.70
12125;DHT22;6126;57.908;16.490;2023-04-25T03:39:57;6.70;93.80
12125;DHT22;6126;57.908;16.490;2023-04-25T03:42:23;6.80;93.80
12125;DHT22;6126;57.908;16.490;2023-04-25T03:44:51;6.70;93.70
12125;DHT22;6126;57.908;16.490;2023-04-25T03:47:17;6.70;93.50
12125;DHT22;6126;57.908;16.490;2023-04-25T03:49:42;6.70;93.70
12125;DHT22;6126;57.908;16.490;2023-04-25T03:52:08;6.60;93.70
12125;DHT22;6126;57.908;16.490;2023-04-25T03:54:34;6.80;93.80
12125;DHT22;6126;57.908;16.490;2023-04-25T03:57:00;6.50;93.70
12125;DHT22;6126;57.908;16.490;2023-04-25T03:59:26;6.70;93.80
12125;DHT22;6126;57.908;16.490;2023-04-25T04:01:52;6.50;93.70
12125;DHT22;6126;57.908;16.490;2023-04-25T04:04:18;6.60;93.50
12125;DHT22;6126;57.908;16.490;2023-04-25T04:06:44;6.60;93.70
12125;DHT22;6126;57.908;16.490;2023-04-25T04:09:11;6.90;93.90
12125;DHT22;6126;57.908;16.490;2023-04-25T04:11:38;6.60;93.50
12125;DHT22;6126;57.908;16.490;2023-04-25T04:14:08;6.60;93.80
12125;DHT22;6126;57.908;16.490;2023-04-25T04:16:35;6.50;93.80
12125;DHT22;6126;57.908;16.490;2023-04-25T04:19:01;6.70;93.90
12125;DHT22;6126;57.908;16.490;2023-04-25T04:21:27;6.70;93.90
12125;DHT22;6126;57.908;16.490;2023-04-25T04:23:53;6.90;94.00
12125;DHT22;6126;57.908;16.490;2023-04-25T04:26:20;6.90;94.00
12125;DHT22;6126;57.908;16.490;2023-04-25T04:28:50;6.60;93.90
12125;DHT22;6126;57.908;16.490;2023-04-25T04:31:17;7.00;94.10
12125;DHT22;6126;57.908;16.490;2023-04-25T04:33:45;6.90;94.00
12125;DHT22;6126;57.908;16.490;2023-04-25T04:36:11;6.90;94.00
12125;DHT22;6126;57.908;16.490;2023-04-25T04:38:38;7.00;94.00
12125;DHT22;6126;57.908;16.490;2023-04-25T04:41:05;6.90;94.00
12125;DHT22;6126;57.908;16.490;2023-04-25T04:43:31;6.90;94.00
12125;DHT22;6126;57.908;16.490;2023-04-25T04:46:00;7.10;94.10
12125;DHT22;6126;57.908;16.490;2023-04-25T04:48:26;6.90;94.00
12125;DHT22;6126;57.908;16.490;2023-04-25T04:50:53;6.80;93.90
12125;DHT22;6126;57.908;16.490;2023-04-25T04:53:19;7.00;94.00
12125;DHT22;6126;57.908;16.490;2023-04-25T04:55:45;7.10;94.10
12125;DHT22;6126;57.908;16.490;2023-04-25T04:58:11;6.90;93.90
12125;DHT22;6126;57.908;16.490;2023-04-25T05:00:37;7.10;94.00
12125;DHT22;6126;57.908;16.490;2023-04-25T05:03:03;7.10;94.00
12125;DHT22;6126;57.908;16.490;2023-04-25T05:05:30;7.10;94.00
12125;DHT22;6126;57.908;16.490;2023-04-25T05:07:56;7.10;94.00
12125;DHT22;6126;57.908;16.490;2023-04-25T05:10:22;7.00;94.00
12125;DHT22;6126;57.908;16.490;2023-04-25T05:12:48;6.80;93.80
12125;DHT22;6126;57.908;16.490;2023-04-25T05:15:14;7.10;93.70
12125;DHT22;6126;57.908;16.490;2023-04-25T05:17:40;7.20;94.40
12125;DHT22;6126;57.908;16.490;2023-04-25T05:20:07;7.10;94.10
12125;DHT22;6126;57.908;16.490;2023-04-25T05:22:36;7.00;94.00
12125;DHT22;6126;57.908;16.490;2023-04-25T05:25:03;7.00;94.10
12125;DHT22;6126;57.908;16.490;2023-04-25T05:27:29;7.00;94.10
12125;DHT22;6126;57.908;16.490;2023-04-25T05:29:55;7.00;94.20
12125;DHT22;6126;57.908;16.490;2023-04-25T05:32:21;7.00;94.20
12125;DHT22;6126;57.908;16.490;2023-04-25T05:34:46;6.80;94.00
12125;DHT22;6126;57.908;16.490;2023-04-25T05:37:12;6.90;93.80
12125;DHT22;6126;57.908;16.490;2023-04-25T05:39:38;7.00;94.20
12125;DHT22;6126;57.908;16.490;2023-04-25T05:42:04;7.30;94.30
12125;DHT22;6126;57.908;16.490;2023-04-25T05:44:30;7.10;94.30
12125;DHT22;6126;57.908;16.490;2023-04-25T05:46:56;7.00;94.20
12125;DHT22;6126;57.908;16.490;2023-04-25T05:49:22;7.00;94.20
12125;DHT22;6126;57.908;16.490;2023-04-25T05:51:48;6.80;94.10
12125;DHT22;6126;57.908;16.490;2023-04-25T05:54:14;7.10;94.30
12125;DHT22;6126;57.908;16.490;2023-04-25T05:56:40;7.10;94.30
12125;DHT22;6126;57.908;16.490;2023-04-25T05:59:06;7.20;94.30
12125;DHT22;6126;57.908;16.490;2023-04-25T06:01:32;7.30;94.40
12125;DHT22;6126;57.908;16.490;2023-04-25T06:03:58;7.40;94.40
12125;DHT22;6126;57.908;16.490;2023-04-25T06:06:23;7.20;94.30
12125;DHT22;6126;57.908;16.490;2023-04-25T06:08:49;7.40;94.40
12125;DHT22;6126;57.908;16.490;2023-04-25T06:11:15;7.60;94.50
12125;DHT22;6126;57.908;16.490;2023-04-25T06:13:41;7.60;94.50
12125;DHT22;6126;57.908;16.490;2023-04-25T06:16:07;7.30;94.30
12125;DHT22;6126;57.908;16.490;2023-04-25T06:18:33;7.30;94.30
12125;DHT22;6126;57.908;16.490;2023-04-25T06:20:59;7.40;94.40
12125;DHT22;6126;57.908;16.490;2023-04-25T06:23:25;7.70;94.60
12125;DHT22;6126;57.908;16.490;2023-04-25T06:25:51;7.60;94.50
12125;DHT22;6126;57.908;16.490;2023-04-25T06:28:16;7.70;94.50
12125;DHT22;6126;57.908;16.490;2023-04-25T06:30:42;7.80;94.60
12125;DHT22;6126;57.908;16.490;2023-04-25T06:33:08;7.50;94.40
12125;DHT22;6126;57.908;16.490;2023-04-25T06:35:34;7.90;94.60
12125;DHT22;6126;57.908;16.490;2023-04-25T06:38:00;7.80;94.60
12125;DHT22;6126;57.908;16.490;2023-04-25T06:40:26;7.80;94.50
12125;DHT22;6126;57.908;16.490;2023-04-25T06:42:52;7.60;94.40
12125;DHT22;6126;57.908;16.490;2023-04-25T06:45:18;7.90;94.60
12125;DHT22;6126;57.908;16.490;2023-04-25T06:47:44;7.70;94.50
12125;DHT22;6126;57.908;16.490;2023-04-25T06:50:10;8.00;94.60
12125;DHT22;6126;57.908;16.490;2023-04-25T06:52:36;7.80;94.50
12125;DHT22;6126;57.908;16.490;2023-04-25T06:55:02;8.00;94.60
12125;DHT22;6126;57.908;16.490;2023-04-25T06:57:29;8.00;94.60
12125;DHT22;6126;57.908;16.490;2023-04-25T06:59:55;8.10;94.60
12125;DHT22;6126;57.908;16.490;2023-04-25T07:02:21;8.20;94.70
12125;DHT22;6126;57.908;16.490;2023-04-25T07:04:47;8.10;94.60
12125;DHT22;6126;57.908;16.490;2023-04-25T07:07:13;8.00;94.50
12125;DHT22;6126;57.908;16.490;2023-04-25T07:09:39;8.20;94.60
12125;DHT22;6126;57.908;16.490;2023-04-25T07:12:05;8.40;94.60
12125;DHT22;6126;57.908;16.490;2023-04-25T07:14:31;8.20;94.60
12125;DHT22;6126;57.908;16.490;2023-04-25T07:16:57;8.40;94.70
12125;DHT22;6126;57.908;16.490;2023-04-25T07:19:23;8.40;94.70
12125;DHT22;6126;57.908;16.490;2023-04-25T07:21:52;8.40;94.70
12125;DHT22;6126;57.908;16.490;2023-04-25T07:24:18;8.30;94.70
12125;DHT22;6126;57.908;16.490;2023-04-25T07:26:44;8.30;94.50
12125;DHT22;6126;57.908;16.490;2023-04-25T07:29:10;8.50;94.70
12125;DHT22;6126;57.908;16.490;2023-04-25T07:31:36;8.50;94.80
12125;DHT22;6126;57.908;16.490;2023-04-25T07:34:02;8.40;94.70
12125;DHT22;6126;57.908;16.490;2023-04-25T07:36:28;8.60;94.80
12125;DHT22;6126;57.908;16.490;2023-04-25T07:38:54;8.40;94.70
12125;DHT22;6126;57.908;16.490;2023-04-25T07:41:19;8.50;94.60
12125;DHT22;6126;57.908;16.490;2023-04-25T07:43:45;8.50;94.60
12125;DHT22;6126;57.908;16.490;2023-04-25T07:46:11;8.50;94.70
12125;DHT22;6126;57.908;16.490;2023-04-25T07:48:37;8.90;94.80
12125;DHT22;6126;57.908;16.490;2023-04-25T07:51:03;8.90;94.80
12125;DHT22;6126;57.908;16.490;2023-04-25T07:53:30;8.80;94.70
12125;DHT22;6126;57.908;16.490;2023-04-25T07:55:57;8.90;94.90
12125;DHT22;6126;57.908;16.490;2023-04-25T07:58:23;8.80;94.70
12125;DHT22;6126;57.908;16.490;2023-04-25T08:00:49;8.90;94.90
12125;DHT22;6126;57.908;16.490;2023-04-25T08:03:15;8.50;94.50
12125;DHT22;6126;57.908;16.490;2023-04-25T08:05:41;8.80;94.90
12125;DHT22;6126;57.908;16.490;2023-04-25T08:08:07;8.90;94.70
12125;DHT22;6126;57.908;16.490;2023-04-25T08:10:33;8.90;94.70
12125;DHT22;6126;57.908;16.490;2023-04-25T08:12:59;8.90;94.90
12125;DHT22;6126;57.908;16.490;2023-04-25T08:15:25;8.80;94.70
12125;DHT22;6126;57.908;16.490;2023-04-25T08:17:51;8.90;94.80
12125;DHT22;6126;57.908;16.490;2023-04-25T08:20:17;8.60;94.70
12125;DHT22;6126;57.908;16.490;2023-04-25T08:22:43;8.70;94.70
12125;DHT22;6126;57.908;16.490;2023-04-25T08:25:09;8.70;94.70
12125;DHT22;6126;57.908;16.490;2023-04-25T08:27:35;8.80;94.90
12125;DHT22;6126;57.908;16.490;2023-04-25T08:30:02;8.70;94.70
12125;DHT22;6126;57.908;16.490;2023-04-25T08:32:29;9.10;95.00
12125;DHT22;6126;57.908;16.490;2023-04-25T08:34:55;9.10;94.90
12125;DHT22;6126;57.908;16.490;2023-04-25T08:37:21;8.80;94.80
12125;DHT22;6126;57.908;16.490;2023-04-25T08:39:47;8.80;94.80
12125;DHT22;6126;57.908;16.490;2023-04-25T08:42:17;8.80;95.00
12125;DHT22;6126;57.908;16.490;2023-04-25T08:44:45;8.60;94.70
12125;DHT22;6126;57.908;16.490;2023-04-25T08:47:13;8.60;94.70
12125;DHT22;6126;57.908;16.490;2023-04-25T08:49:40;8.90;94.80
12125;DHT22;6126;57.908;16.490;2023-04-25T08:52:13;8.90;94.80
12125;DHT22;6126;57.908;16.490;2023-04-25T08:54:43;9.00;95.00
12125;DHT22;6126;57.908;16.490;2023-04-25T08:57:14;9.00;95.00
12125;DHT22;6126;57.908;16.490;2023-04-25T08:59:41;8.90;94.90
12125;DHT22;6126;57.908;16.490;2023-04-25T09:02:11;8.80;94.80
12125;DHT22;6126;57.908;16.490;2023-04-25T09:04:43;8.80;94.90
12125;DHT22;6126;57.908;16.490;2023-04-25T09:07:10;8.80;94.90
12125;DHT22;6126;57.908;16.490;2023-04-25T09:09:36;8.70;95.10
12125;DHT22;6126;57.908;16.490;2023-04-25T09:12:02;8.90;95.20
12125;DHT22;6126;57.908;16.490;2023-04-25T09:14:28;8.90;95.00
12125;DHT22;6126;57.908;16.490;2023-04-25T09:16:57;9.00;95.10
12125;DHT22;6126;57.908;16.490;2023-04-25T09:19:30;9.00;95.20
12125;DHT22;6126;57.908;16.490;2023-04-25T09:22:00;9.00;95.30
12125;DHT22;6126;57.908;16.490;2023-04-25T09:24:38;8.90;95.10
12125;DHT22;6126;57.908;16.490;2023-04-25T09:27:11;9.00;95.20
12125;DHT22;6126;57.908;16.490;2023-04-25T09:29:40;9.20;95.20
12125;DHT22;6126;57.908;16.490;2023-04-25T09:32:17;9.20;95.10
12125;DHT22;6126;57.908;16.490;2023-04-25T09:34:52;9.50;95.10
12125;DHT22;6126;57.908;16.490;2023-04-25T09:37:22;9.20;95.00
12125;DHT22;6126;57.908;16.490;2023-04-25T09:40:05;9.50;95.10
12125;DHT22;6126;57.908;16.490;2023-04-25T09:42:35;9.60;95.10
12125;DHT22;6126;57.908;16.490;2023-04-25T09:45:03;9.70;95.00
12125;DHT22;6126;57.908;16.490;2023-04-25T09:47:30;9.80;95.00
12125;DHT22;6126;57.908;16.490;2023-04-25T09:49:56;9.80;95.00
12125;DHT22;6126;57.908;16.490;2023-04-25T09:52:23;9.60;94.90
12125;DHT22;6126;57.908;16.490;2023-04-25T09:54:51;9.60;94.80
12125;DHT22;6126;57.908;16.490;2023-04-25T09:57:21;9.50;94.80
12125;DHT22;6126;57.908;16.490;2023-04-25T09:59:53;9.60;94.90
12125;DHT22;6126;57.908;16.490;2023-04-25T10:02:22;9.50;94.90
12125;DHT22;6126;57.908;16.490;2023-04-25T10:04:53;9.50;95.10
12125;DHT22;6126;57.908;16.490;2023-04-25T10:07:22;9.90;95.30
12125;DHT22;6126;57.908;16.490;2023-04-25T10:10:02;9.90;95.30
12125;DHT22;6126;57.908;16.490;2023-04-25T10:12:30;10.00;94.80
12125;DHT22;6126;57.908;16.490;2023-04-25T10:14:58;10.40;94.70
12125;DHT22;6126;57.908;16.490;2023-04-25T10:17:24;10.40;94.60
12125;DHT22;6126;57.908;16.490;2023-04-25T10:19:54;10.20;94.40
12125;DHT22;6126;57.908;16.490;2023-04-25T10:25:05;10.10;94.10
12125;DHT22;6126;57.908;16.490;2023-04-25T10:27:34;10.30;94.10
12125;DHT22;6126;57.908;16.490;2023-04-25T10:30:13;10.30;94.00
12125;DHT22;6126;57.908;16.490;2023-04-25T10:32:44;10.30;94.10
12125;DHT22;6126;57.908;16.490;2023-04-25T10:35:29;10.10;94.00
12125;DHT22;6126;57.908;16.490;2023-04-25T10:40:25;9.90;94.50
12125;DHT22;6126;57.908;16.490;2023-04-25T10:42:53;9.80;94.50
12125;DHT22;6126;57.908;16.490;2023-04-25T10:45:22;9.50;94.40
12125;DHT22;6126;57.908;16.490;2023-04-25T10:47:48;9.70;94.70
12125;DHT22;6126;57.908;16.490;2023-04-25T10:50:15;9.40;94.60
12125;DHT22;6126;57.908;16.490;2023-04-25T10:52:44;9.60;94.70
12125;DHT22;6126;57.908;16.490;2023-04-25T10:55:10;9.50;94.80
12125;DHT22;6126;57.908;16.490;2023-04-25T11:00:12;9.70;94.90
12125;DHT22;6126;57.908;16.490;2023-04-25T11:02:45;9.50;94.80
12125;DHT22;6126;57.908;16.490;2023-04-25T11:05:34;9.80;94.90
12125;DHT22;6126;57.908;16.490;2023-04-25T11:08:01;9.90;94.80
12125;DHT22;6126;57.908;16.490;2023-04-25T11:10:30;9.80;94.70
12125;DHT22;6126;57.908;16.490;2023-04-25T11:12:58;9.60;94.60
12125;DHT22;6126;57.908;16.490;2023-04-25T11:15:25;9.40;94.60
12125;DHT22;6126;57.908;16.490;2023-04-25T11:17:51;9.40;94.60
12125;DHT22;6126;57.908;16.490;2023-04-25T11:20:18;9.50;94.60
12125;DHT22;6126;57.908;16.490;2023-04-25T11:22:46;9.50;94.60
12125;DHT22;6126;57.908;16.490;2023-04-25T11:25:14;9.40;94.60
12125;DHT22;6126;57.908;16.490;2023-04-25T11:30:17;9.50;94.80
12125;DHT22;6126;57.908;16.490;2023-04-25T11:32:44;9.30;94.70
12125;DHT22;6126;57.908;16.490;2023-04-25T11:35:11;9.30;94.70
12125;DHT22;6126;57.908;16.490;2023-04-25T11:37:39;9.30;94.60
12125;DHT22;6126;57.908;16.490;2023-04-25T11:40:06;9.30;94.70
12125;DHT22;6126;57.908;16.490;2023-04-25T11:42:34;9.10;94.70
12125;DHT22;6126;57.908;16.490;2023-04-25T11:45:03;9.40;94.80
12125;DHT22;6126;57.908;16.490;2023-04-25T11:47:33;9.30;94.80
12125;DHT22;6126;57.908;16.490;2023-04-25T11:50:00;9.40;94.80
12125;DHT22;6126;57.908;16.490;2023-04-25T11:52:46;9.20;94.70
12125;DHT22;6126;57.908;16.490;2023-04-25T11:55:18;9.50;94.80
12125;DHT22;6126;57.908;16.490;2023-04-25T11:57:48;9.60;94.80
12125;DHT22;6126;57.908;16.490;2023-04-25T12:00:16;9.50;94.80
12125;DHT22;6126;57.908;16.490;2023-04-25T12:02:52;9.60;95.20
12125;DHT22;6126;57.908;16.490;2023-04-25T12:05:20;9.50;94.80
12125;DHT22;6126;57.908;16.490;2023-04-25T12:07:49;9.70;94.90
12125;DHT22;6126;57.908;16.490;2023-04-25T12:10:17;9.70;94.80
12125;DHT22;6126;57.908;16.490;2023-04-25T12:12:45;9.80;94.70
12125;DHT22;6126;57.908;16.490;2023-04-25T12:15:16;10.00;94.20
12125;DHT22;6126;57.908;16.490;2023-04-25T12:17:49;10.10;94.20
12125;DHT22;6126;57.908;16.490;2023-04-25T12:20:19;10.20;94.10
12125;DHT22;6126;57.908;16.490;2023-04-25T12:22:49;10.20;94.10
12125;DHT22;6126;57.908;16.490;2023-04-25T12:25:42;10.20;94.10
12125;DHT22;6126;57.908;16.490;2023-04-25T12:28:18;10.30;94.10
12125;DHT22;6126;57.908;16.490;2023-04-25T12:33:35;10.50;94.00
12125;DHT22;6126;57.908;16.490;2023-04-25T12:36:05;10.60;94.00
12125;DHT22;6126;57.908;16.490;2023-04-25T12:38:41;10.60;93.90
12125;DHT22;6126;57.908;16.490;2023-04-25T12:41:07;10.70;93.90
12125;DHT22;6126;57.908;16.490;2023-04-25T12:43:34;10.70;93.90
12125;DHT22;6126;57.908;16.490;2023-04-25T12:46:00;10.90;93.90
12125;DHT22;6126;57.908;16.490;2023-04-25T12:48:26;11.00;93.90
12125;DHT22;6126;57.908;16.490;2023-04-25T12:50:52;10.90;93.90
12125;DHT22;6126;57.908;16.490;2023-04-25T12:53:20;11.00;93.90
12125;DHT22;6126;57.908;16.490;2023-04-25T12:55:47;10.80;93.70
12125;DHT22;6126;57.908;16.490;2023-04-25T12:58:15;11.20;93.90
12125;DHT22;6126;57.908;16.490;2023-04-25T13:00:43;11.30;93.80
12125;DHT22;6126;57.908;16.490;2023-04-25T13:03:09;11.10;93.60
12125;DHT22;6126;57.908;16.490;2023-04-25T13:05:36;11.40;93.60
12125;DHT22;6126;57.908;16.490;2023-04-25T13:08:03;11.30;93.50
12125;DHT22;6126;57.908;16.490;2023-04-25T13:10:29;11.50;93.60
12125;DHT22;6126;57.908;16.490;2023-04-25T13:12:56;11.00;93.40
12125;DHT22;6126;57.908;16.490;2023-04-25T13:15:22;11.10;93.40
12125;DHT22;6126;57.908;16.490;2023-04-25T13:17:48;11.10;93.40
12125;DHT22;6126;57.908;16.490;2023-04-25T13:20:14;11.20;93.50
12125;DHT22;6126;57.908;16.490;2023-04-25T13:22:42;11.00;93.40
12125;DHT22;6126;57.908;16.490;2023-04-25T13:25:08;11.00;93.30
12125;DHT22;6126;57.908;16.490;2023-04-25T13:27:36;10.90;93.30
12125;DHT22;6126;57.908;16.490;2023-04-25T13:30:03;11.10;93.40
12125;DHT22;6126;57.908;16.490;2023-04-25T13:32:34;11.10;93.40
12125;DHT22;6126;57.908;16.490;2023-04-25T13:35:04;11.20;93.40
12125;DHT22;6126;57.908;16.490;2023-04-25T13:37:31;11.00;93.30
12125;DHT22;6126;57.908;16.490;2023-04-25T13:40:05;10.90;93.30
12125;DHT22;6126;57.908;16.490;2023-04-25T13:42:35;11.00;93.30
12125;DHT22;6126;57.908;16.490;2023-04-25T13:45:01;10.90;93.30
12125;DHT22;6126;57.908;16.490;2023-04-25T13:47:29;10.80;93.20
12125;DHT22;6126;57.908;16.490;2023-04-25T13:49:55;10.90;93.30
12125;DHT22;6126;57.908;16.490;2023-04-25T13:52:22;10.80;93.20
12125;DHT22;6126;57.908;16.490;2023-04-25T13:54:50;10.80;93.20
12125;DHT22;6126;57.908;16.490;2023-04-25T13:57:17;11.00;93.30
12125;DHT22;6126;57.908;16.490;2023-04-25T13:59:43;10.90;93.70
12125;DHT22;6126;57.908;16.490;2023-04-25T14:02:09;10.70;93.20
12125;DHT22;6126;57.908;16.490;2023-04-25T14:04:35;10.90;93.30
12125;DHT22;6126;57.908;16.490;2023-04-25T14:07:02;10.90;93.30
12125;DHT22;6126;57.908;16.490;2023-04-25T14:09:29;10.90;93.20
12125;DHT22;6126;57.908;16.490;2023-04-25T14:11:55;11.00;93.30
12125;DHT22;6126;57.908;16.490;2023-04-25T14:14:22;11.20;93.30
12125;DHT22;6126;57.908;16.490;2023-04-25T14:16:49;11.40;93.40
12125;DHT22;6126;57.908;16.490;2023-04-25T14:19:16;11.10;93.20
12125;DHT22;6126;57.908;16.490;2023-04-25T14:21:43;11.40;93.20
12125;DHT22;6126;57.908;16.490;2023-04-25T14:24:09;11.30;93.10
12125;DHT22;6126;57.908;16.490;2023-04-25T14:26:36;11.40;93.10
12125;DHT22;6126;57.908;16.490;2023-04-25T14:29:07;11.20;93.00
12125;DHT22;6126;57.908;16.490;2023-04-25T14:31:34;11.40;93.00
12125;DHT22;6126;57.908;16.490;2023-04-25T14:34:01;11.40;93.00
12125;DHT22;6126;57.908;16.490;2023-04-25T14:36:30;11.50;93.00
12125;DHT22;6126;57.908;16.490;2023-04-25T14:38:57;11.40;92.90
12125;DHT22;6126;57.908;16.490;2023-04-25T14:41:24;11.40;92.90
12125;DHT22;6126;57.908;16.490;2023-04-25T14:43:51;11.80;93.10
12125;DHT22;6126;57.908;16.490;2023-04-25T14:46:22;11.70;93.00
12125;DHT22;6126;57.908;16.490;2023-04-25T14:48:51;11.90;93.00
12125;DHT22;6126;57.908;16.490;2023-04-25T14:51:17;11.90;92.90
12125;DHT22;6126;57.908;16.490;2023-04-25T14:53:43;11.80;92.90
12125;DHT22;6126;57.908;16.490;2023-04-25T14:56:09;11.60;92.70
12125;DHT22;6126;57.908;16.490;2023-04-25T14:58:35;11.80;92.80
12125;DHT22;6126;57.908;16.490;2023-04-25T15:01:01;11.50;92.60
12125;DHT22;6126;57.908;16.490;2023-04-25T15:03:27;11.70;92.80
12125;DHT22;6126;57.908;16.490;2023-04-25T15:05:54;11.50;92.70
12125;DHT22;6126;57.908;16.490;2023-04-25T15:08:21;11.60;92.70
12125;DHT22;6126;57.908;16.490;2023-04-25T15:10:47;11.60;92.70
12125;DHT22;6126;57.908;16.490;2023-04-25T15:13:13;11.90;92.80
12125;DHT22;6126;57.908;16.490;2023-04-25T15:15:39;11.70;92.70
12125;DHT22;6126;57.908;16.490;2023-04-25T15:18:05;11.60;92.70
12125;DHT22;6126;57.908;16.490;2023-04-25T15:20:31;11.80;92.70
12125;DHT22;6126;57.908;16.490;2023-04-25T15:22:57;11.90;92.80
12125;DHT22;6126;57.908;16.490;2023-04-25T15:25:23;11.90;92.70
12125;DHT22;6126;57.908;16.490;2023-04-25T15:27:50;11.70;92.50
12125;DHT22;6126;57.908;16.490;2023-04-25T15:30:17;12.10;92.70
12125;DHT22;6126;57.908;16.490;2023-04-25T15:32:45;12.00;92.60
12125;DHT22;6126;57.908;16.490;2023-04-25T15:35:12;12.00;92.50
12125;DHT22;6126;57.908;16.490;2023-04-25T15:37:40;11.80;92.40
12125;DHT22;6126;57.908;16.490;2023-04-25T15:40:08;12.10;92.50
12125;DHT22;6126;57.908;16.490;2023-04-25T15:42:43;12.20;92.60
12125;DHT22;6126;57.908;16.490;2023-04-25T15:45:16;12.20;92.60
12125;DHT22;6126;57.908;16.490;2023-04-25T15:47:43;11.90;92.30
12125;DHT22;6126;57.908;16.490;2023-04-25T15:50:10;12.40;92.40
12125;DHT22;6126;57.908;16.490;2023-04-25T15:52:38;12.30;92.30
12125;DHT22;6126;57.908;16.490;2023-04-25T15:55:05;12.10;92.20
12125;DHT22;6126;57.908;16.490;2023-04-25T15:57:35;12.00;92.50